createdAt,value
2019-04-28T00:01:24.459Z,8.57
2019-04-28T00:03:53.817Z,9.30
2019-04-28T00:06:24.880Z,6.40
2019-04-28T00:08:54.330Z,9.30
2019-04-28T00:11:23.687Z,8.83
2019-04-28T00:13:53.622Z,7.37
2019-04-28T00:16:23.461Z,9.13
2019-04-28T00:18:53.032Z,6.70
2019-04-28T00:21:24.085Z,6.87
2019-04-28T00:23:58.047Z,8.97
2019-04-28T00:26:37.483Z,9.30
2019-04-28T00:29:06.973Z,6.27
2019-04-28T00:31:36.383Z,9.17
2019-04-28T00:34:06.195Z,8.93
2019-04-28T00:36:35.614Z,8.63
2019-04-28T00:39:06.341Z,10.67
2019-04-28T00:41:35.732Z,5.70
2019-04-28T00:44:05.247Z,9.63
2019-04-28T00:46:36.512Z,5.20
2019-04-28T00:49:05.885Z,7.60
2019-04-28T00:51:35.336Z,7.13
2019-04-28T00:54:04.912Z,7.43
2019-04-28T00:56:35.883Z,5.13
2019-04-28T00:59:05.275Z,6.20
2019-04-28T01:01:42.630Z,9.97
2019-04-28T01:04:13.029Z,8.93
2019-04-28T01:06:43.002Z,9.07
2019-04-28T01:09:12.880Z,6.47
2019-04-28T01:11:42.335Z,8.33
2019-04-28T01:14:11.782Z,8.70
2019-04-28T01:16:47.156Z,7.30
2019-04-28T01:19:24.121Z,6.17
2019-04-28T01:21:57.850Z,7.13
2019-04-28T01:24:27.294Z,5.93
2019-04-28T01:26:56.755Z,8.53
2019-04-28T01:29:26.195Z,8.67
2019-04-28T01:32:13.234Z,7.07
2019-04-28T01:34:42.616Z,5.93
2019-04-28T01:37:11.998Z,9.10
2019-04-28T01:39:41.360Z,4.50
2019-04-28T01:42:10.752Z,9.73
2019-04-28T01:44:40.167Z,9.43
2019-04-28T01:47:10.602Z,9.03
2019-04-28T01:49:40.608Z,7.57
2019-04-28T01:52:10.482Z,8.93
2019-04-28T01:54:40.390Z,6.53
2019-04-28T01:57:10.211Z,9.60
2019-04-28T01:59:40.248Z,7.97
2019-04-28T02:02:10.287Z,6.07
2019-04-28T02:04:40.290Z,6.50
2019-04-28T02:07:12.729Z,6.47
2019-04-28T02:09:42.146Z,8.13
2019-04-28T02:12:11.566Z,5.97
2019-04-28T02:14:40.953Z,5.43
2019-04-28T02:17:10.572Z,5.93
2019-04-28T02:19:40.971Z,8.20
2019-04-28T02:22:24.153Z,6.73
2019-04-28T02:24:53.520Z,8.73
2019-04-28T02:27:22.894Z,6.77
2019-04-28T02:29:52.261Z,7.30
2019-04-28T02:32:24.398Z,8.80
2019-04-28T02:34:52.703Z,7.70
2019-04-28T02:37:22.079Z,7.47
2019-04-28T02:39:51.427Z,5.93
2019-04-28T02:42:21.072Z,5.80
2019-04-28T02:44:50.889Z,6.67
2019-04-28T02:47:21.887Z,5.50
2019-04-28T02:49:55.683Z,13.63
2019-04-28T02:52:30.910Z,10.13
2019-04-28T02:55:03.322Z,6.30
2019-04-28T02:57:32.738Z,8.87
2019-04-28T03:00:02.033Z,7.77
2019-04-28T03:02:32.078Z,6.03
2019-04-28T03:05:01.652Z,6.93
2019-04-28T03:07:31.451Z,8.57
2019-04-28T03:10:03.842Z,7.37
2019-04-28T03:12:32.052Z,10.53
2019-04-28T03:15:01.631Z,9.47
2019-04-28T03:17:31.246Z,6.93
2019-04-28T03:20:01.308Z,6.97
2019-04-28T03:22:33.607Z,7.70
2019-04-28T03:25:03.652Z,6.67
2019-04-28T03:27:40.689Z,6.87
2019-04-28T03:30:28.041Z,6.60
2019-04-28T03:33:04.947Z,8.10
2019-04-28T03:35:32.494Z,5.47
2019-04-28T03:38:01.441Z,7.93
2019-04-28T03:40:33.662Z,9.67
2019-04-28T03:43:03.202Z,8.53
2019-04-28T03:45:37.269Z,6.97
2019-04-28T03:48:06.626Z,7.20
2019-04-28T03:50:37.655Z,6.13
2019-04-28T03:53:07.071Z,7.37
2019-04-28T03:55:36.439Z,8.57
2019-04-28T03:58:05.842Z,5.70
2019-04-28T04:00:35.196Z,7.00
2019-04-28T04:03:04.579Z,7.30
2019-04-28T04:05:34.422Z,7.60
2019-04-28T04:08:03.780Z,6.77
2019-04-28T04:10:52.791Z,7.33
2019-04-28T04:13:32.740Z,8.47
2019-04-28T04:16:15.622Z,6.67
2019-04-28T04:18:46.612Z,13.43
2019-04-28T04:21:17.623Z,5.90
2019-04-28T04:23:46.997Z,5.00
2019-04-28T04:26:16.373Z,6.10
2019-04-28T04:28:45.731Z,6.70
2019-04-28T04:31:15.118Z,5.83
2019-04-28T04:33:44.466Z,6.87
2019-04-28T04:36:13.831Z,8.23
2019-04-28T04:38:46.212Z,5.43
2019-04-28T04:41:14.337Z,8.10
2019-04-28T04:43:43.723Z,5.37
2019-04-28T04:46:14.784Z,7.90
2019-04-28T04:48:44.505Z,4.43
2019-04-28T04:51:13.996Z,8.77
2019-04-28T04:53:43.516Z,5.87
2019-04-28T04:56:12.896Z,5.40
2019-04-28T04:58:42.260Z,5.17
2019-04-28T05:01:20.397Z,7.07
2019-04-28T05:03:54.244Z,5.33
2019-04-28T05:06:41.577Z,6.17
2019-04-28T05:09:11.316Z,6.03
2019-04-28T05:11:40.783Z,8.93
2019-04-28T05:14:11.979Z,8.80
2019-04-28T05:16:41.234Z,10.43
2019-04-28T05:19:10.741Z,5.37
2019-04-28T05:21:40.624Z,5.73
2019-04-28T05:24:15.965Z,7.40
2019-04-28T05:26:48.992Z,9.50
2019-04-28T05:29:21.834Z,8.27
2019-04-28T05:31:50.358Z,5.77
2019-04-28T05:34:20.506Z,8.23
2019-04-28T05:36:51.562Z,7.60
2019-04-28T05:39:20.880Z,6.93
2019-04-28T05:41:50.565Z,5.17
2019-04-28T05:44:20.366Z,5.07
2019-04-28T05:46:50.606Z,5.93
2019-04-28T05:49:30.610Z,7.10
2019-04-28T05:52:01.623Z,5.87
2019-04-28T05:54:49.653Z,8.90
2019-04-28T05:57:30.547Z,6.83
2019-04-28T06:00:16.187Z,8.43
2019-04-28T06:02:56.475Z,7.13
2019-04-28T06:05:20.086Z,7.00
2019-04-28T06:07:51.112Z,6.53
2019-04-28T06:10:20.550Z,7.47
2019-04-28T06:12:49.935Z,5.20
2019-04-28T06:15:21.962Z,6.43
2019-04-28T06:17:52.761Z,6.20
2019-04-28T06:20:22.126Z,5.83
2019-04-28T06:22:51.496Z,6.13
2019-04-28T06:25:20.884Z,7.27
2019-04-28T06:27:50.274Z,6.77
2019-04-28T06:30:19.981Z,7.70
2019-04-28T06:32:49.326Z,7.10
2019-04-28T06:35:18.779Z,7.30
2019-04-28T06:37:48.184Z,7.17
2019-04-28T06:40:19.165Z,7.27
2019-04-28T06:42:48.620Z,7.13
2019-04-28T06:45:17.992Z,10.27
2019-04-28T06:47:47.369Z,8.23
2019-04-28T06:50:18.260Z,7.43
2019-04-28T06:52:47.645Z,8.43
2019-04-28T06:55:17.034Z,8.10
2019-04-28T06:57:46.380Z,8.40
2019-04-28T07:00:15.835Z,5.90
2019-04-28T07:02:45.209Z,8.77
2019-04-28T07:05:14.673Z,8.93
2019-04-28T07:07:44.034Z,9.07
2019-04-28T07:10:13.512Z,7.33
2019-04-28T07:12:42.916Z,7.47
2019-04-28T07:15:12.449Z,7.10
2019-04-28T07:17:41.817Z,6.97
2019-04-28T07:20:27.842Z,8.03
2019-04-28T07:22:57.211Z,9.27
2019-04-28T07:25:26.675Z,11.60
2019-04-28T07:27:56.032Z,6.40
2019-04-28T07:30:25.483Z,7.23
2019-04-28T07:32:54.965Z,11.83
2019-04-28T07:35:24.432Z,7.70
2019-04-28T07:37:53.826Z,5.97
2019-04-28T07:40:23.265Z,7.83
2019-04-28T07:42:52.727Z,8.90
2019-04-28T07:45:22.114Z,10.93
2019-04-28T07:47:51.508Z,10.20
2019-04-28T07:50:20.871Z,7.70
2019-04-28T07:52:51.912Z,7.10
2019-04-28T07:55:21.274Z,9.47
2019-04-28T07:57:50.645Z,7.73
2019-04-28T08:00:27.708Z,7.60
2019-04-28T08:02:57.083Z,6.20
2019-04-28T08:05:26.561Z,6.67
2019-04-28T08:07:56.056Z,5.70
2019-04-28T08:10:25.469Z,6.03
2019-04-28T08:12:54.827Z,5.30
2019-04-28T08:15:24.213Z,8.10
2019-04-28T08:17:53.647Z,5.63
2019-04-28T08:20:23.096Z,6.13
2019-04-28T08:22:52.468Z,9.30
2019-04-28T08:25:21.859Z,6.23
2019-04-28T08:27:51.326Z,8.97
2019-04-28T08:30:20.767Z,7.83
2019-04-28T08:33:07.573Z,7.93
2019-04-28T08:35:36.956Z,7.07
2019-04-28T08:38:06.336Z,5.10
2019-04-28T08:40:35.714Z,6.90
2019-04-28T08:43:05.168Z,4.50
2019-04-28T08:45:34.536Z,7.13
2019-04-28T08:48:03.997Z,5.77
2019-04-28T08:50:33.357Z,5.90
2019-04-28T08:53:02.744Z,4.97
2019-04-28T08:55:32.058Z,6.03
2019-04-28T08:58:01.415Z,5.37
2019-04-28T09:00:30.903Z,5.50
2019-04-28T09:03:01.232Z,6.20
2019-04-28T09:05:30.640Z,5.00
2019-04-28T09:08:00.074Z,5.10
2019-04-28T09:10:29.468Z,4.47
2019-04-28T09:12:58.831Z,4.27
2019-04-28T09:15:28.214Z,5.63
2019-04-28T09:17:57.599Z,3.67
2019-04-28T09:20:26.966Z,5.23
2019-04-28T09:22:56.365Z,2.73
2019-04-28T09:25:25.734Z,2.07
2019-04-28T09:27:55.122Z,3.30
2019-04-28T09:30:24.569Z,3.07
2019-04-28T09:32:53.961Z,2.40
2019-04-28T09:35:23.331Z,4.37
2019-04-28T09:37:52.657Z,4.17
2019-04-28T09:40:22.062Z,3.50
2019-04-28T09:42:53.085Z,2.67
2019-04-28T09:45:24.153Z,4.77
2019-04-28T09:47:53.542Z,3.03
2019-04-28T09:50:22.903Z,4.10
2019-04-28T09:52:52.339Z,5.67
2019-04-28T09:55:21.749Z,4.70
2019-04-28T09:57:51.204Z,5.00
2019-04-28T10:00:20.836Z,4.57
2019-04-28T10:02:50.199Z,3.57
2019-04-28T10:05:19.592Z,5.33
2019-04-28T10:07:48.996Z,3.33
2019-04-28T10:10:18.575Z,2.23
2019-04-28T10:12:47.961Z,3.50
2019-04-28T10:15:17.531Z,4.27
2019-04-28T10:17:46.915Z,4.73
2019-04-28T10:20:16.924Z,6.10
2019-04-28T10:22:46.482Z,4.57
2019-04-28T10:25:16.100Z,2.90
2019-04-28T10:27:45.492Z,2.80
2019-04-28T10:30:15.191Z,3.00
2019-04-28T10:32:44.595Z,3.17
2019-04-28T10:35:14.390Z,4.73
2019-04-28T10:37:45.565Z,4.10
2019-04-28T10:40:22.540Z,3.83
2019-04-28T10:42:51.947Z,5.43
2019-04-28T10:45:23.036Z,4.53
2019-04-28T10:47:52.513Z,3.97
2019-04-28T10:50:22.031Z,5.27
2019-04-28T10:52:51.455Z,4.70
2019-04-28T10:55:23.349Z,6.00
2019-04-28T10:57:52.796Z,3.27
2019-04-28T11:00:23.875Z,2.97
2019-04-28T11:02:53.253Z,6.07
2019-04-28T11:05:24.293Z,4.13
2019-04-28T11:07:55.157Z,3.47
2019-04-28T11:10:24.732Z,3.80
2019-04-28T11:12:54.260Z,5.33
2019-04-28T11:15:25.339Z,3.23
2019-04-28T11:17:54.858Z,4.47
2019-04-28T11:20:30.849Z,3.57
2019-04-28T11:23:02.402Z,6.40
2019-04-28T11:25:31.955Z,5.33
2019-04-28T11:28:01.999Z,4.37
2019-04-28T11:30:31.588Z,2.57
2019-04-28T11:33:08.679Z,3.50
2019-04-28T11:35:39.782Z,3.60
2019-04-28T11:38:09.387Z,1.10
2019-04-28T11:40:40.944Z,2.17
2019-04-28T11:43:10.405Z,3.60
2019-04-28T11:45:39.854Z,2.17
2019-04-28T11:48:09.310Z,2.23
2019-04-28T11:50:38.740Z,3.47
2019-04-28T11:53:08.143Z,1.83
2019-04-28T11:55:37.520Z,1.33
2019-04-28T11:58:07.443Z,1.20
2019-04-28T12:00:37.212Z,2.50
2019-04-28T12:03:07.453Z,1.07
2019-04-28T12:05:41.195Z,1.33
2019-04-28T12:08:10.709Z,1.43
2019-04-28T12:10:57.572Z,1.67
2019-04-28T12:13:31.584Z,1.73
2019-04-28T12:16:14.022Z,1.47
2019-04-28T12:18:45.246Z,2.57
2019-04-28T12:21:14.682Z,1.33
2019-04-28T12:23:44.143Z,2.90
2019-04-28T12:26:13.703Z,1.67
2019-04-28T12:28:43.262Z,2.90
2019-04-28T12:31:14.386Z,1.10
2019-04-28T12:33:43.848Z,1.23
2019-04-28T12:36:13.489Z,2.23
2019-04-28T12:38:42.894Z,1.97
2019-04-28T12:41:12.271Z,2.00
2019-04-28T12:43:41.695Z,1.37
2019-04-28T12:46:11.009Z,2.00
2019-04-28T12:48:40.610Z,1.10
2019-04-28T12:51:10.094Z,1.50
2019-04-28T12:53:39.529Z,1.80
2019-04-28T12:56:09.107Z,1.17
2019-04-28T12:58:40.146Z,1.60
2019-04-28T13:01:13.931Z,1.63
2019-04-28T13:03:45.011Z,0.70
2019-04-28T13:06:22.123Z,1.17
2019-04-28T13:08:53.061Z,1.73
2019-04-28T13:11:22.549Z,1.23
2019-04-28T13:13:51.987Z,0.83
2019-04-28T13:16:21.374Z,1.00
2019-04-28T13:18:50.756Z,1.30
2019-04-28T13:21:20.286Z,1.23
2019-04-28T13:23:50.392Z,1.12
2019-04-28T13:26:20.901Z,0.70
2019-04-28T13:28:50.882Z,1.05
2019-04-28T13:31:20.329Z,0.98
2019-04-28T13:33:56.197Z,1.05
2019-04-28T13:36:21.385Z,0.55
2019-04-28T13:38:51.444Z,1.22
2019-04-28T13:41:24.556Z,0.75
2019-04-28T13:43:54.019Z,0.53
2019-04-28T13:46:23.451Z,1.25
2019-04-28T13:48:53.433Z,0.60
2019-04-28T13:51:23.398Z,1.57
2019-04-28T13:53:53.337Z,0.72
2019-04-28T13:56:23.441Z,1.12
2019-04-28T13:58:55.123Z,0.85
2019-04-28T14:01:37.708Z,0.90
2019-04-28T14:04:09.264Z,1.67
2019-04-28T14:06:43.676Z,1.30
2019-04-28T14:09:15.292Z,0.82
2019-04-28T14:11:45.313Z,0.70
2019-04-28T14:14:15.403Z,1.10
2019-04-28T14:16:45.551Z,0.57
2019-04-28T14:19:15.648Z,0.60
2019-04-28T14:21:45.788Z,0.55
2019-04-28T14:24:16.022Z,1.70
2019-04-28T14:26:46.156Z,1.15
2019-04-28T14:29:16.295Z,0.60
2019-04-28T14:31:47.105Z,0.68
2019-04-28T14:34:17.179Z,0.75
2019-04-28T14:36:47.241Z,0.50
2019-04-28T14:39:17.277Z,0.90
2019-04-28T14:41:47.425Z,2.30
2019-04-28T14:44:17.883Z,0.72
2019-04-28T14:46:47.880Z,3.00
2019-04-28T14:49:17.902Z,26.23
2019-04-28T14:51:47.876Z,5.65
2019-04-28T14:54:17.280Z,11.05
2019-04-28T14:56:46.662Z,4.92
2019-04-28T14:59:17.864Z,5.58
2019-04-28T15:02:05.807Z,3.05
2019-04-28T15:04:37.468Z,1.70
2019-04-28T15:07:09.043Z,1.75
2019-04-28T15:09:57.175Z,1.62
2019-04-28T15:12:27.139Z,1.27
2019-04-28T15:14:57.160Z,1.60
2019-04-28T15:17:27.121Z,1.57
2019-04-28T15:19:57.303Z,2.02
2019-04-28T15:22:27.435Z,1.27
2019-04-28T15:24:57.634Z,1.05
2019-04-28T15:27:27.632Z,1.00
2019-04-28T15:29:57.645Z,0.93
2019-04-28T15:32:27.613Z,2.02
2019-04-28T15:34:57.579Z,2.80
2019-04-28T15:37:27.511Z,1.10
2019-04-28T15:39:57.527Z,1.32
2019-04-28T15:42:27.488Z,1.30
2019-04-28T15:44:57.603Z,1.07
2019-04-28T15:47:27.087Z,1.52
2019-04-28T15:49:56.699Z,1.10
2019-04-28T15:52:26.201Z,1.57
2019-04-28T15:54:55.559Z,0.93
2019-04-28T15:57:24.941Z,1.23
2019-04-28T15:59:54.344Z,1.10
2019-04-28T16:02:23.791Z,1.73
2019-04-28T16:04:53.157Z,0.80
2019-04-28T16:07:25.012Z,1.57
2019-04-28T16:09:53.603Z,1.30
2019-04-28T16:12:22.987Z,1.90
2019-04-28T16:14:52.367Z,0.90
2019-04-28T16:17:21.765Z,0.90
2019-04-28T16:19:51.132Z,0.50
2019-04-28T16:22:20.535Z,0.73
2019-04-28T16:24:49.946Z,0.60
2019-04-28T16:27:19.314Z,1.83
2019-04-28T16:29:48.711Z,0.40
2019-04-28T16:32:18.168Z,1.53
2019-04-28T16:34:50.688Z,0.97
2019-04-28T16:37:20.092Z,2.23
2019-04-28T16:39:49.478Z,0.60
2019-04-28T16:42:19.344Z,0.80
2019-04-28T16:44:49.247Z,0.83
2019-04-28T16:47:18.676Z,1.00
2019-04-28T16:49:48.097Z,1.00
2019-04-28T16:52:17.508Z,0.60
2019-04-28T16:54:48.520Z,0.50
2019-04-28T16:57:22.248Z,1.27
2019-04-28T16:59:56.324Z,1.70
2019-04-28T17:02:27.625Z,0.37
2019-04-28T17:04:57.000Z,1.23
2019-04-28T17:07:26.425Z,0.90
2019-04-28T17:09:55.860Z,0.57
2019-04-28T17:12:25.258Z,0.70
2019-04-28T17:14:54.640Z,0.73
2019-04-28T17:17:24.020Z,1.20
2019-04-28T17:19:53.627Z,0.93
2019-04-28T17:22:23.082Z,0.80
2019-04-28T17:24:57.299Z,1.27
2019-04-28T17:27:28.443Z,1.23
2019-04-28T17:29:57.901Z,0.70
2019-04-28T17:32:27.336Z,1.00
2019-04-28T17:34:56.723Z,0.80
2019-04-28T17:37:27.896Z,1.80
2019-04-28T17:39:57.285Z,1.70
2019-04-28T17:42:26.667Z,0.97
2019-04-28T17:44:58.721Z,0.67
2019-04-28T17:47:28.899Z,1.20
2019-04-28T17:49:58.176Z,1.20
2019-04-28T17:52:27.584Z,0.70
2019-04-28T17:54:57.194Z,3.47
2019-04-28T17:57:26.614Z,1.73
2019-04-28T17:59:57.677Z,1.97
2019-04-28T18:02:44.366Z,1.40
2019-04-28T18:05:33.554Z,2.17
2019-04-28T18:08:03.977Z,0.80
2019-04-28T18:10:34.483Z,0.70
2019-04-28T18:13:04.145Z,0.60
2019-04-28T18:15:44.469Z,0.70
2019-04-28T18:18:18.589Z,1.20
2019-04-28T18:20:48.037Z,0.70
2019-04-28T18:23:17.404Z,1.00
2019-04-28T18:25:46.795Z,1.57
2019-04-28T18:28:16.214Z,1.93
2019-04-28T18:31:03.341Z,1.10
2019-04-28T18:33:34.361Z,1.10
2019-04-28T18:36:11.192Z,1.50
2019-04-28T18:38:54.010Z,1.13
2019-04-28T18:41:25.044Z,1.83
2019-04-28T18:44:02.133Z,2.13
2019-04-28T18:46:31.823Z,2.57
2019-04-28T18:49:01.277Z,3.23
2019-04-28T18:51:33.866Z,2.50
2019-04-28T18:54:03.371Z,2.10
2019-04-28T18:56:32.809Z,2.63
2019-04-28T18:59:02.238Z,2.10
2019-04-28T19:01:41.991Z,1.80
2019-04-28T19:04:11.480Z,2.13
2019-04-28T19:06:40.898Z,1.60
2019-04-28T19:09:30.092Z,2.20
2019-04-28T19:12:06.955Z,1.70
2019-04-28T19:14:41.027Z,2.73
2019-04-28T19:17:17.703Z,3.23
2019-04-28T19:19:47.178Z,1.77
2019-04-28T19:22:16.585Z,1.50
2019-04-28T19:24:46.049Z,1.40
2019-04-28T19:27:15.503Z,1.70
2019-04-28T19:29:44.976Z,1.80
2019-04-28T19:32:14.406Z,1.40
2019-04-28T19:34:45.468Z,2.20
2019-04-28T19:37:15.101Z,1.93
2019-04-28T19:39:44.507Z,2.73
2019-04-28T19:42:13.957Z,4.00
2019-04-28T19:44:43.397Z,3.37
2019-04-28T19:47:14.539Z,3.83
2019-04-28T19:49:44.012Z,5.03
2019-04-28T19:52:13.475Z,1.67
2019-04-28T19:54:44.641Z,1.40
2019-04-28T19:57:18.354Z,3.00
2019-04-28T19:59:55.259Z,1.90
2019-04-28T20:02:25.862Z,3.03
2019-04-28T20:04:57.924Z,1.57
2019-04-28T20:07:27.299Z,2.27
2019-04-28T20:09:58.316Z,3.93
2019-04-28T20:12:27.782Z,10.03
2019-04-28T20:14:57.481Z,3.10
2019-04-28T20:17:26.880Z,2.23
2019-04-28T20:19:56.519Z,3.03
2019-04-28T20:22:26.201Z,2.30
2019-04-28T20:24:55.593Z,2.30
2019-04-28T20:27:25.116Z,1.53
2019-04-28T20:29:54.574Z,1.50
2019-04-28T20:32:24.044Z,5.03
2019-04-28T20:34:53.459Z,1.63
2019-04-28T20:37:28.838Z,2.20
2019-04-28T20:39:59.851Z,2.03
2019-04-28T20:42:45.705Z,2.83
2019-04-28T20:45:16.981Z,2.77
2019-04-28T20:47:46.481Z,3.50
2019-04-28T20:50:15.925Z,4.00
2019-04-28T20:52:45.302Z,4.10
2019-04-28T20:55:14.924Z,3.27
2019-04-28T20:57:44.275Z,2.30
2019-04-28T21:00:13.824Z,1.43
2019-04-28T21:02:43.170Z,2.43
2019-04-28T21:05:12.560Z,3.50
2019-04-28T21:07:41.928Z,3.70
2019-04-28T21:10:11.445Z,3.03
2019-04-28T21:12:40.844Z,2.33
2019-04-28T21:15:10.394Z,2.97
2019-04-28T21:17:39.923Z,2.37
2019-04-28T21:20:09.481Z,1.83
2019-04-28T21:22:38.763Z,1.97
2019-04-28T21:25:08.790Z,1.73
2019-04-28T21:27:38.182Z,3.93
2019-04-28T21:30:07.768Z,1.80
2019-04-28T21:32:37.161Z,2.00
2019-04-28T21:35:09.721Z,2.00
2019-04-28T21:37:39.107Z,2.40
2019-04-28T21:40:10.484Z,2.80
2019-04-28T21:42:53.587Z,1.90
2019-04-28T21:45:40.686Z,1.67
2019-04-28T21:48:10.810Z,2.23
2019-04-28T21:50:40.204Z,2.40
2019-04-28T21:53:09.646Z,2.40
2019-04-28T21:55:39.216Z,2.20
2019-04-28T21:58:08.581Z,1.60
2019-04-28T22:00:54.651Z,3.53
2019-04-28T22:03:24.623Z,2.27
2019-04-28T22:05:54.024Z,1.63
2019-04-28T22:08:23.396Z,3.47
2019-04-28T22:10:52.884Z,1.93
2019-04-28T22:13:22.258Z,2.40
2019-04-28T22:15:51.621Z,2.67
2019-04-28T22:18:21.006Z,2.23
2019-04-28T22:20:50.358Z,1.90
2019-04-28T22:23:27.372Z,2.30
2019-04-28T22:25:56.731Z,2.53
2019-04-28T22:28:26.120Z,3.17
2019-04-28T22:30:55.498Z,2.27
2019-04-28T22:33:24.922Z,2.20
2019-04-28T22:35:54.358Z,2.00
2019-04-28T22:38:23.845Z,2.57
2019-04-28T22:40:53.207Z,1.57
2019-04-28T22:43:22.619Z,2.30
2019-04-28T22:45:52.009Z,2.20
2019-04-28T22:48:23.096Z,2.07
2019-04-28T22:50:54.180Z,1.60
2019-04-28T22:53:25.206Z,1.90
2019-04-28T22:56:04.871Z,1.50
2019-04-28T22:58:45.002Z,3.17
2019-04-28T23:01:16.072Z,2.00
2019-04-28T23:03:47.108Z,3.73
2019-04-28T23:09:01.481Z,1.77
2019-04-28T23:11:42.838Z,2.77
2019-04-28T23:14:24.180Z,2.33
2019-04-28T23:17:06.886Z,2.37
2019-04-28T23:19:48.535Z,3.93
2019-04-28T23:25:38.085Z,1.53
2019-04-28T23:28:19.307Z,2.63
2019-04-28T23:31:00.478Z,2.77
2019-04-28T23:33:42.402Z,3.00
2019-04-28T23:36:23.753Z,2.20
2019-04-28T23:39:05.884Z,2.30
2019-04-28T23:41:51.728Z,2.23
2019-04-28T23:44:33.483Z,2.43
2019-04-28T23:47:15.522Z,3.10
2019-04-28T23:49:57.681Z,2.43
2019-04-28T23:52:41.349Z,2.63
2019-04-28T23:55:22.981Z,2.90
2019-04-28T23:58:04.247Z,2.23
